sensor_id;sensor_type;location;lat;lon;timestamp;P1;durP1;ratioP1;P2;durP2;ratioP2
45792;SDS011;31495;42.740;22.908;2022-12-05T00:00:34;14.32;;;6.05;;
45792;SDS011;31495;42.740;22.908;2022-12-05T00:01:35;10.38;;;5.55;;
45792;SDS011;31495;42.740;22.908;2022-12-05T00:02:37;13.90;;;7.18;;
45792;SDS011;31495;42.740;22.908;2022-12-05T00:03:37;17.55;;;8.15;;
45792;SDS011;31495;42.740;22.908;2022-12-05T00:04:36;18.77;;;8.82;;
45792;SDS011;31495;42.740;22.908;2022-12-05T00:05:38;16.13;;;8.88;;
45792;SDS011;31495;42.740;22.908;2022-12-05T00:06:39;17.02;;;8.77;;
45792;SDS011;31495;42.740;22.908;2022-12-05T00:07:40;18.33;;;8.90;;
45792;SDS011;31495;42.740;22.908;2022-12-05T00:08:39;15.55;;;8.00;;
45792;SDS011;31495;42.740;22.908;2022-12-05T00:09:39;14.23;;;8.35;;
45792;SDS011;31495;42.740;22.908;2022-12-05T00:10:38;13.32;;;7.55;;
45792;SDS011;31495;42.740;22.908;2022-12-05T00:11:39;16.02;;;7.63;;
45792;SDS011;31495;42.740;22.908;2022-12-05T00:12:40;16.58;;;7.85;;
45792;SDS011;31495;42.740;22.908;2022-12-05T00:13:40;13.85;;;6.82;;
45792;SDS011;31495;42.740;22.908;2022-12-05T00:14:40;17.05;;;8.57;;
45792;SDS011;31495;42.740;22.908;2022-12-05T00:15:40;17.58;;;8.20;;
45792;SDS011;31495;42.740;22.908;2022-12-05T00:16:40;13.40;;;7.65;;
45792;SDS011;31495;42.740;22.908;2022-12-05T00:17:41;16.25;;;7.88;;
45792;SDS011;31495;42.740;22.908;2022-12-05T00:18:40;15.57;;;8.20;;
45792;SDS011;31495;42.740;22.908;2022-12-05T00:19:40;16.52;;;8.63;;
45792;SDS011;31495;42.740;22.908;2022-12-05T00:20:45;15.27;;;7.38;;
45792;SDS011;31495;42.740;22.908;2022-12-05T00:21:46;15.48;;;7.75;;
45792;SDS011;31495;42.740;22.908;2022-12-05T00:22:45;14.35;;;7.10;;
45792;SDS011;31495;42.740;22.908;2022-12-05T00:23:45;15.70;;;7.93;;
45792;SDS011;31495;42.740;22.908;2022-12-05T00:24:44;14.70;;;7.45;;
45792;SDS011;31495;42.740;22.908;2022-12-05T00:25:44;14.68;;;7.93;;
45792;SDS011;31495;42.740;22.908;2022-12-05T00:26:43;13.95;;;7.45;;
45792;SDS011;31495;42.740;22.908;2022-12-05T00:27:43;13.65;;;7.63;;
45792;SDS011;31495;42.740;22.908;2022-12-05T00:28:42;15.23;;;7.75;;
45792;SDS011;31495;42.740;22.908;2022-12-05T00:29:43;14.15;;;8.00;;
45792;SDS011;31495;42.740;22.908;2022-12-05T00:30:42;10.30;;;5.50;;
45792;SDS011;31495;42.740;22.908;2022-12-05T00:31:42;14.05;;;7.88;;
45792;SDS011;31495;42.740;22.908;2022-12-05T00:32:42;14.38;;;6.38;;
45792;SDS011;31495;42.740;22.908;2022-12-05T00:33:41;12.88;;;6.82;;
45792;SDS011;31495;42.740;22.908;2022-12-05T00:34:42;14.20;;;7.05;;
45792;SDS011;31495;42.740;22.908;2022-12-05T00:35:41;11.02;;;6.50;;
45792;SDS011;31495;42.740;22.908;2022-12-05T00:36:41;10.27;;;5.70;;
45792;SDS011;31495;42.740;22.908;2022-12-05T00:37:40;14.02;;;7.57;;
45792;SDS011;31495;42.740;22.908;2022-12-05T00:38:40;14.98;;;7.05;;
45792;SDS011;31495;42.740;22.908;2022-12-05T00:39:40;12.85;;;7.47;;
45792;SDS011;31495;42.740;22.908;2022-12-05T00:40:39;11.27;;;5.38;;
45792;SDS011;31495;42.740;22.908;2022-12-05T00:41:39;12.05;;;6.28;;
45792;SDS011;31495;42.740;22.908;2022-12-05T00:42:39;12.27;;;5.88;;
45792;SDS011;31495;42.740;22.908;2022-12-05T00:43:40;14.98;;;6.95;;
45792;SDS011;31495;42.740;22.908;2022-12-05T00:44:40;13.18;;;7.05;;
45792;SDS011;31495;42.740;22.908;2022-12-05T00:45:39;13.00;;;5.93;;
45792;SDS011;31495;42.740;22.908;2022-12-05T00:46:39;13.75;;;6.25;;
45792;SDS011;31495;42.740;22.908;2022-12-05T00:47:39;11.30;;;5.55;;
45792;SDS011;31495;42.740;22.908;2022-12-05T00:48:39;13.05;;;6.40;;
45792;SDS011;31495;42.740;22.908;2022-12-05T00:49:44;11.05;;;6.05;;
45792;SDS011;31495;42.740;22.908;2022-12-05T00:50:46;13.68;;;6.70;;
45792;SDS011;31495;42.740;22.908;2022-12-05T00:51:45;11.00;;;6.00;;
45792;SDS011;31495;42.740;22.908;2022-12-05T00:52:45;11.32;;;6.03;;
45792;SDS011;31495;42.740;22.908;2022-12-05T00:53:46;11.52;;;6.13;;
45792;SDS011;31495;42.740;22.908;2022-12-05T00:54:49;14.13;;;6.68;;
45792;SDS011;31495;42.740;22.908;2022-12-05T00:55:49;13.43;;;6.47;;
45792;SDS011;31495;42.740;22.908;2022-12-05T00:56:51;14.30;;;6.95;;
45792;SDS011;31495;42.740;22.908;2022-12-05T00:57:54;12.50;;;6.40;;
45792;SDS011;31495;42.740;22.908;2022-12-05T00:58:53;12.77;;;6.32;;
45792;SDS011;31495;42.740;22.908;2022-12-05T00:59:56;10.93;;;6.03;;
45792;SDS011;31495;42.740;22.908;2022-12-05T01:00:55;11.82;;;5.63;;
45792;SDS011;31495;42.740;22.908;2022-12-05T01:01:56;11.85;;;5.63;;
45792;SDS011;31495;42.740;22.908;2022-12-05T01:02:56;11.43;;;6.22;;
45792;SDS011;31495;42.740;22.908;2022-12-05T01:03:59;10.60;;;5.43;;
45792;SDS011;31495;42.740;22.908;2022-12-05T01:05:01;12.13;;;6.38;;
45792;SDS011;31495;42.740;22.908;2022-12-05T01:06:00;9.52;;;5.47;;
45792;SDS011;31495;42.740;22.908;2022-12-05T01:07:00;7.47;;;4.63;;
45792;SDS011;31495;42.740;22.908;2022-12-05T01:08:00;12.48;;;5.10;;
45792;SDS011;31495;42.740;22.908;2022-12-05T01:08:59;13.10;;;6.10;;
45792;SDS011;31495;42.740;22.908;2022-12-05T01:09:59;16.38;;;6.07;;
45792;SDS011;31495;42.740;22.908;2022-12-05T01:10:58;12.18;;;5.70;;
45792;SDS011;31495;42.740;22.908;2022-12-05T01:11:58;9.75;;;5.90;;
45792;SDS011;31495;42.740;22.908;2022-12-05T01:13:01;12.90;;;5.45;;
45792;SDS011;31495;42.740;22.908;2022-12-05T01:14:01;13.95;;;6.25;;
45792;SDS011;31495;42.740;22.908;2022-12-05T01:15:04;10.50;;;6.25;;
45792;SDS011;31495;42.740;22.908;2022-12-05T01:16:04;13.30;;;5.90;;
45792;SDS011;31495;42.740;22.908;2022-12-05T01:17:04;10.55;;;5.97;;
45792;SDS011;31495;42.740;22.908;2022-12-05T01:18:04;10.10;;;4.72;;
45792;SDS011;31495;42.740;22.908;2022-12-05T01:19:04;10.88;;;4.78;;
45792;SDS011;31495;42.740;22.908;2022-12-05T01:20:06;9.50;;;4.15;;
45792;SDS011;31495;42.740;22.908;2022-12-05T01:21:06;9.20;;;4.82;;
45792;SDS011;31495;42.740;22.908;2022-12-05T01:22:05;7.93;;;3.88;;
45792;SDS011;31495;42.740;22.908;2022-12-05T01:23:05;9.13;;;5.03;;
45792;SDS011;31495;42.740;22.908;2022-12-05T01:24:05;9.63;;;4.38;;
45792;SDS011;31495;42.740;22.908;2022-12-05T01:25:05;8.85;;;4.75;;
45792;SDS011;31495;42.740;22.908;2022-12-05T01:26:06;8.52;;;4.53;;
45792;SDS011;31495;42.740;22.908;2022-12-05T01:27:08;9.50;;;4.97;;
45792;SDS011;31495;42.740;22.908;2022-12-05T01:28:07;10.00;;;4.78;;
45792;SDS011;31495;42.740;22.908;2022-12-05T01:29:07;9.43;;;4.65;;
45792;SDS011;31495;42.740;22.908;2022-12-05T01:30:08;10.60;;;5.10;;
45792;SDS011;31495;42.740;22.908;2022-12-05T01:31:09;11.57;;;5.53;;
45792;SDS011;31495;42.740;22.908;2022-12-05T01:32:16;10.25;;;5.32;;
45792;SDS011;31495;42.740;22.908;2022-12-05T01:33:16;8.93;;;4.13;;
45792;SDS011;31495;42.740;22.908;2022-12-05T01:34:17;10.23;;;4.25;;
45792;SDS011;31495;42.740;22.908;2022-12-05T01:35:17;9.93;;;4.68;;
45792;SDS011;31495;42.740;22.908;2022-12-05T01:36:16;9.48;;;4.85;;
45792;SDS011;31495;42.740;22.908;2022-12-05T01:37:16;11.45;;;6.20;;
45792;SDS011;31495;42.740;22.908;2022-12-05T01:38:15;9.68;;;5.00;;
45792;SDS011;31495;42.740;22.908;2022-12-05T01:39:15;14.02;;;5.95;;
45792;SDS011;31495;42.740;22.908;2022-12-05T01:40:15;10.70;;;5.25;;
45792;SDS011;31495;42.740;22.908;2022-12-05T01:41:16;11.38;;;5.32;;
45792;SDS011;31495;42.740;22.908;2022-12-05T01:42:17;10.45;;;5.75;;
45792;SDS011;31495;42.740;22.908;2022-12-05T01:43:17;12.07;;;5.60;;
45792;SDS011;31495;42.740;22.908;2022-12-05T01:45:30;12.35;;;6.32;;
45792;SDS011;31495;42.740;22.908;2022-12-05T01:46:33;11.60;;;5.85;;
45792;SDS011;31495;42.740;22.908;2022-12-05T01:47:34;10.98;;;5.55;;
45792;SDS011;31495;42.740;22.908;2022-12-05T01:48:35;11.55;;;5.35;;
45792;SDS011;31495;42.740;22.908;2022-12-05T01:49:36;11.23;;;6.43;;
45792;SDS011;31495;42.740;22.908;2022-12-05T01:50:39;13.60;;;6.15;;
45792;SDS011;31495;42.740;22.908;2022-12-05T01:51:41;8.50;;;4.75;;
45792;SDS011;31495;42.740;22.908;2022-12-05T01:52:43;11.50;;;5.57;;
45792;SDS011;31495;42.740;22.908;2022-12-05T01:53:43;9.45;;;5.13;;
45792;SDS011;31495;42.740;22.908;2022-12-05T01:54:42;8.68;;;4.95;;
45792;SDS011;31495;42.740;22.908;2022-12-05T01:55:45;9.52;;;5.07;;
45792;SDS011;31495;42.740;22.908;2022-12-05T01:56:47;8.98;;;4.50;;
45792;SDS011;31495;42.740;22.908;2022-12-05T01:57:50;10.45;;;5.65;;
45792;SDS011;31495;42.740;22.908;2022-12-05T01:58:49;11.27;;;6.35;;
45792;SDS011;31495;42.740;22.908;2022-12-05T01:59:51;9.50;;;5.13;;
45792;SDS011;31495;42.740;22.908;2022-12-05T02:00:56;12.32;;;6.32;;
45792;SDS011;31495;42.740;22.908;2022-12-05T02:01:56;11.38;;;5.65;;
45792;SDS011;31495;42.740;22.908;2022-12-05T02:02:56;10.90;;;6.57;;
45792;SDS011;31495;42.740;22.908;2022-12-05T02:03:59;13.02;;;6.00;;
45792;SDS011;31495;42.740;22.908;2022-12-05T02:05:01;10.45;;;5.03;;
45792;SDS011;31495;42.740;22.908;2022-12-05T02:06:04;7.20;;;3.70;;
45792;SDS011;31495;42.740;22.908;2022-12-05T02:07:04;8.45;;;4.63;;
45792;SDS011;31495;42.740;22.908;2022-12-05T02:08:05;8.30;;;4.60;;
45792;SDS011;31495;42.740;22.908;2022-12-05T02:09:06;7.43;;;4.28;;
45792;SDS011;31495;42.740;22.908;2022-12-05T02:10:06;9.13;;;5.25;;
45792;SDS011;31495;42.740;22.908;2022-12-05T02:11:06;8.30;;;4.03;;
45792;SDS011;31495;42.740;22.908;2022-12-05T02:12:07;7.45;;;4.07;;
45792;SDS011;31495;42.740;22.908;2022-12-05T02:18:40;9.18;;;4.40;;
45792;SDS011;31495;42.740;22.908;2022-12-05T02:30:25;10.13;;;4.75;;
45792;SDS011;31495;42.740;22.908;2022-12-05T02:37:27;11.70;;;5.70;;
45792;SDS011;31495;42.740;22.908;2022-12-05T02:38:35;9.02;;;5.15;;
45792;SDS011;31495;42.740;22.908;2022-12-05T02:40:11;10.88;;;5.18;;
45792;SDS011;31495;42.740;22.908;2022-12-05T02:41:22;10.30;;;5.05;;
45792;SDS011;31495;42.740;22.908;2022-12-05T02:42:29;13.48;;;5.90;;
45792;SDS011;31495;42.740;22.908;2022-12-05T02:43:39;12.07;;;5.68;;
45792;SDS011;31495;42.740;22.908;2022-12-05T02:44:55;11.65;;;6.10;;
45792;SDS011;31495;42.740;22.908;2022-12-05T02:45:59;7.82;;;4.10;;
45792;SDS011;31495;42.740;22.908;2022-12-05T02:47:03;9.65;;;5.05;;
45792;SDS011;31495;42.740;22.908;2022-12-05T02:48:06;9.45;;;4.60;;
45792;SDS011;31495;42.740;22.908;2022-12-05T02:49:10;8.60;;;4.55;;
45792;SDS011;31495;42.740;22.908;2022-12-05T02:50:15;9.00;;;4.03;;
45792;SDS011;31495;42.740;22.908;2022-12-05T02:51:20;8.48;;;4.03;;
45792;SDS011;31495;42.740;22.908;2022-12-05T02:52:22;8.50;;;4.13;;
45792;SDS011;31495;42.740;22.908;2022-12-05T02:53:24;7.45;;;4.20;;
45792;SDS011;31495;42.740;22.908;2022-12-05T02:54:27;8.23;;;4.22;;
45792;SDS011;31495;42.740;22.908;2022-12-05T02:55:30;9.30;;;3.88;;
45792;SDS011;31495;42.740;22.908;2022-12-05T02:57:33;7.93;;;4.13;;
45792;SDS011;31495;42.740;22.908;2022-12-05T02:58:36;10.90;;;4.75;;
45792;SDS011;31495;42.740;22.908;2022-12-05T02:59:42;10.45;;;4.75;;
45792;SDS011;31495;42.740;22.908;2022-12-05T03:00:42;10.50;;;4.30;;
45792;SDS011;31495;42.740;22.908;2022-12-05T03:01:45;10.27;;;4.22;;
45792;SDS011;31495;42.740;22.908;2022-12-05T03:02:51;8.90;;;3.70;;
45792;SDS011;31495;42.740;22.908;2022-12-05T03:03:53;7.95;;;4.10;;
45792;SDS011;31495;42.740;22.908;2022-12-05T03:05:19;7.25;;;3.67;;
45792;SDS011;31495;42.740;22.908;2022-12-05T03:07:17;9.82;;;4.07;;
45792;SDS011;31495;42.740;22.908;2022-12-05T03:07:53;8.38;;;3.78;;
45792;SDS011;31495;42.740;22.908;2022-12-05T03:10:05;8.85;;;4.00;;
45792;SDS011;31495;42.740;22.908;2022-12-05T03:11:06;7.45;;;3.58;;
45792;SDS011;31495;42.740;22.908;2022-12-05T03:12:39;8.75;;;4.57;;
45792;SDS011;31495;42.740;22.908;2022-12-05T03:13:47;10.40;;;4.30;;
45792;SDS011;31495;42.740;22.908;2022-12-05T03:14:53;8.15;;;4.22;;
45792;SDS011;31495;42.740;22.908;2022-12-05T03:16:19;10.20;;;4.95;;
45792;SDS011;31495;42.740;22.908;2022-12-05T03:17:42;7.35;;;3.80;;
45792;SDS011;31495;42.740;22.908;2022-12-05T03:18:50;10.68;;;5.13;;
45792;SDS011;31495;42.740;22.908;2022-12-05T03:20:07;9.88;;;5.50;;
45792;SDS011;31495;42.740;22.908;2022-12-05T03:21:20;11.38;;;4.78;;
45792;SDS011;31495;42.740;22.908;2022-12-05T03:23:52;7.63;;;3.67;;
45792;SDS011;31495;42.740;22.908;2022-12-05T03:24:59;7.63;;;3.63;;
45792;SDS011;31495;42.740;22.908;2022-12-05T03:27:20;8.90;;;4.00;;
45792;SDS011;31495;42.740;22.908;2022-12-05T03:31:03;10.85;;;4.88;;
45792;SDS011;31495;42.740;22.908;2022-12-05T03:32:09;10.23;;;4.65;;
45792;SDS011;31495;42.740;22.908;2022-12-05T03:33:18;7.85;;;4.10;;
45792;SDS011;31495;42.740;22.908;2022-12-05T03:34:23;9.77;;;4.85;;
45792;SDS011;31495;42.740;22.908;2022-12-05T03:35:49;8.93;;;4.95;;
45792;SDS011;31495;42.740;22.908;2022-12-05T03:37:05;10.65;;;5.03;;
45792;SDS011;31495;42.740;22.908;2022-12-05T03:39:17;7.85;;;3.85;;
45792;SDS011;31495;42.740;22.908;2022-12-05T03:41:45;8.63;;;4.28;;
45792;SDS011;31495;42.740;22.908;2022-12-05T03:42:52;8.80;;;3.17;;
45792;SDS011;31495;42.740;22.908;2022-12-05T03:44:12;7.97;;;3.88;;
45792;SDS011;31495;42.740;22.908;2022-12-05T03:45:19;7.47;;;4.55;;
45792;SDS011;31495;42.740;22.908;2022-12-05T03:47:46;7.40;;;3.50;;
45792;SDS011;31495;42.740;22.908;2022-12-05T03:49:58;8.15;;;4.18;;
45792;SDS011;31495;42.740;22.908;2022-12-05T03:51:02;5.68;;;3.33;;
45792;SDS011;31495;42.740;22.908;2022-12-05T03:52:12;7.57;;;4.03;;
45792;SDS011;31495;42.740;22.908;2022-12-05T03:53:40;7.82;;;4.05;;
45792;SDS011;31495;42.740;22.908;2022-12-05T03:54:54;7.72;;;3.42;;
45792;SDS011;31495;42.740;22.908;2022-12-05T03:55:57;8.93;;;4.07;;
45792;SDS011;31495;42.740;22.908;2022-12-05T03:57:09;8.27;;;4.18;;
45792;SDS011;31495;42.740;22.908;2022-12-05T03:58:20;10.20;;;4.55;;
45792;SDS011;31495;42.740;22.908;2022-12-05T03:59:38;7.57;;;4.00;;
45792;SDS011;31495;42.740;22.908;2022-12-05T04:00:48;8.60;;;4.57;;
45792;SDS011;31495;42.740;22.908;2022-12-05T04:01:52;9.50;;;4.32;;
45792;SDS011;31495;42.740;22.908;2022-12-05T04:02:54;9.85;;;4.20;;
45792;SDS011;31495;42.740;22.908;2022-12-05T04:05:12;12.48;;;4.80;;
45792;SDS011;31495;42.740;22.908;2022-12-05T04:05:53;9.02;;;5.32;;
45792;SDS011;31495;42.740;22.908;2022-12-05T04:06:56;8.65;;;4.28;;
45792;SDS011;31495;42.740;22.908;2022-12-05T04:08:13;10.07;;;4.95;;
45792;SDS011;31495;42.740;22.908;2022-12-05T04:09:19;10.13;;;4.53;;
45792;SDS011;31495;42.740;22.908;2022-12-05T04:10:25;8.00;;;4.30;;
45792;SDS011;31495;42.740;22.908;2022-12-05T04:11:28;10.85;;;3.90;;
45792;SDS011;31495;42.740;22.908;2022-12-05T04:12:33;9.32;;;3.90;;
45792;SDS011;31495;42.740;22.908;2022-12-05T04:13:42;7.63;;;3.72;;
45792;SDS011;31495;42.740;22.908;2022-12-05T04:15:03;9.93;;;3.63;;
45792;SDS011;31495;42.740;22.908;2022-12-05T04:16:11;7.82;;;3.88;;
45792;SDS011;31495;42.740;22.908;2022-12-05T04:17:46;8.10;;;3.97;;
45792;SDS011;31495;42.740;22.908;2022-12-05T04:20:34;7.18;;;4.10;;
45792;SDS011;31495;42.740;22.908;2022-12-05T04:22:58;8.18;;;4.25;;
45792;SDS011;31495;42.740;22.908;2022-12-05T04:23:58;8.63;;;4.65;;
45792;SDS011;31495;42.740;22.908;2022-12-05T04:25:17;7.03;;;4.35;;
45792;SDS011;31495;42.740;22.908;2022-12-05T04:26:33;9.27;;;5.05;;
45792;SDS011;31495;42.740;22.908;2022-12-05T04:29:04;9.20;;;5.00;;
45792;SDS011;31495;42.740;22.908;2022-12-05T04:30:17;10.70;;;4.80;;
45792;SDS011;31495;42.740;22.908;2022-12-05T04:31:25;12.35;;;5.18;;
45792;SDS011;31495;42.740;22.908;2022-12-05T04:34:09;9.40;;;4.70;;
45792;SDS011;31495;42.740;22.908;2022-12-05T04:35:14;8.80;;;5.07;;
45792;SDS011;31495;42.740;22.908;2022-12-05T04:36:21;9.10;;;5.05;;
45792;SDS011;31495;42.740;22.908;2022-12-05T04:37:28;7.88;;;4.13;;
45792;SDS011;31495;42.740;22.908;2022-12-05T04:38:36;9.13;;;4.03;;
45792;SDS011;31495;42.740;22.908;2022-12-05T04:39:46;7.72;;;3.63;;
45792;SDS011;31495;42.740;22.908;2022-12-05T04:41:56;9.63;;;4.72;;
45792;SDS011;31495;42.740;22.908;2022-12-05T04:42:59;10.20;;;4.35;;
45792;SDS011;31495;42.740;22.908;2022-12-05T04:44:03;8.63;;;4.18;;
45792;SDS011;31495;42.740;22.908;2022-12-05T04:45:07;8.32;;;4.53;;
45792;SDS011;31495;42.740;22.908;2022-12-05T04:46:10;7.63;;;4.05;;
45792;SDS011;31495;42.740;22.908;2022-12-05T04:47:12;9.75;;;5.30;;
45792;SDS011;31495;42.740;22.908;2022-12-05T04:48:15;8.88;;;4.80;;
45792;SDS011;31495;42.740;22.908;2022-12-05T04:49:17;11.45;;;5.10;;
45792;SDS011;31495;42.740;22.908;2022-12-05T04:50:20;11.30;;;6.07;;
45792;SDS011;31495;42.740;22.908;2022-12-05T04:51:23;18.75;;;7.90;;
45792;SDS011;31495;42.740;22.908;2022-12-05T04:52:26;16.63;;;7.30;;
45792;SDS011;31495;42.740;22.908;2022-12-05T04:54:30;15.70;;;6.50;;
45792;SDS011;31495;42.740;22.908;2022-12-05T04:55:34;18.73;;;7.50;;
45792;SDS011;31495;42.740;22.908;2022-12-05T04:56:37;13.73;;;7.30;;
45792;SDS011;31495;42.740;22.908;2022-12-05T04:58:53;18.02;;;8.07;;
45792;SDS011;31495;42.740;22.908;2022-12-05T04:59:53;15.70;;;7.88;;
45792;SDS011;31495;42.740;22.908;2022-12-05T05:02:16;16.50;;;8.10;;
45792;SDS011;31495;42.740;22.908;2022-12-05T05:03:21;17.55;;;7.82;;
45792;SDS011;31495;42.740;22.908;2022-12-05T05:04:28;15.95;;;7.95;;
45792;SDS011;31495;42.740;22.908;2022-12-05T05:05:33;16.50;;;7.80;;
45792;SDS011;31495;42.740;22.908;2022-12-05T05:06:38;17.50;;;6.43;;
45792;SDS011;31495;42.740;22.908;2022-12-05T05:07:43;11.88;;;7.38;;
45792;SDS011;31495;42.740;22.908;2022-12-05T05:09:49;15.18;;;8.80;;
45792;SDS011;31495;42.740;22.908;2022-12-05T05:10:57;15.80;;;9.50;;
45792;SDS011;31495;42.740;22.908;2022-12-05T05:11:59;22.58;;;11.50;;
45792;SDS011;31495;42.740;22.908;2022-12-05T05:12:59;17.95;;;9.00;;
45792;SDS011;31495;42.740;22.908;2022-12-05T05:13:58;16.00;;;9.48;;
45792;SDS011;31495;42.740;22.908;2022-12-05T05:14:58;17.85;;;9.85;;
45792;SDS011;31495;42.740;22.908;2022-12-05T05:15:58;15.63;;;9.38;;
45792;SDS011;31495;42.740;22.908;2022-12-05T05:16:57;14.05;;;7.70;;
45792;SDS011;31495;42.740;22.908;2022-12-05T05:17:57;10.70;;;5.97;;
45792;SDS011;31495;42.740;22.908;2022-12-05T05:18:57;13.95;;;6.70;;
45792;SDS011;31495;42.740;22.908;2022-12-05T05:19:56;9.50;;;5.45;;
45792;SDS011;31495;42.740;22.908;2022-12-05T05:21:20;11.50;;;6.95;;
45792;SDS011;31495;42.740;22.908;2022-12-05T05:22:20;11.10;;;5.53;;
45792;SDS011;31495;42.740;22.908;2022-12-05T05:23:19;14.23;;;8.40;;
45792;SDS011;31495;42.740;22.908;2022-12-05T05:24:19;12.00;;;6.70;;
45792;SDS011;31495;42.740;22.908;2022-12-05T05:25:24;10.20;;;5.55;;
45792;SDS011;31495;42.740;22.908;2022-12-05T05:26:25;10.32;;;5.80;;
45792;SDS011;31495;42.740;22.908;2022-12-05T05:28:25;11.60;;;6.18;;
45792;SDS011;31495;42.740;22.908;2022-12-05T05:29:24;10.07;;;5.30;;
45792;SDS011;31495;42.740;22.908;2022-12-05T05:30:25;9.88;;;5.95;;
45792;SDS011;31495;42.740;22.908;2022-12-05T05:31:25;11.32;;;6.43;;
45792;SDS011;31495;42.740;22.908;2022-12-05T05:32:24;16.38;;;9.73;;
45792;SDS011;31495;42.740;22.908;2022-12-05T05:33:24;20.55;;;9.43;;
45792;SDS011;31495;42.740;22.908;2022-12-05T05:34:23;19.90;;;8.90;;
45792;SDS011;31495;42.740;22.908;2022-12-05T05:35:24;10.85;;;6.63;;
45792;SDS011;31495;42.740;22.908;2022-12-05T05:36:24;12.60;;;6.50;;
45792;SDS011;31495;42.740;22.908;2022-12-05T05:37:25;14.35;;;8.02;;
45792;SDS011;31495;42.740;22.908;2022-12-05T05:38:25;16.23;;;7.95;;
45792;SDS011;31495;42.740;22.908;2022-12-05T05:39:24;17.30;;;8.20;;
45792;SDS011;31495;42.740;22.908;2022-12-05T05:40:25;15.63;;;8.27;;
45792;SDS011;31495;42.740;22.908;2022-12-05T05:41:26;16.75;;;9.38;;
45792;SDS011;31495;42.740;22.908;2022-12-05T05:42:27;16.58;;;7.88;;
45792;SDS011;31495;42.740;22.908;2022-12-05T05:43:26;13.25;;;7.35;;
45792;SDS011;31495;42.740;22.908;2022-12-05T05:44:26;17.08;;;7.35;;
45792;SDS011;31495;42.740;22.908;2022-12-05T05:45:25;13.52;;;7.68;;
45792;SDS011;31495;42.740;22.908;2022-12-05T05:46:25;16.08;;;7.70;;
45792;SDS011;31495;42.740;22.908;2022-12-05T05:47:28;22.95;;;13.85;;
45792;SDS011;31495;42.740;22.908;2022-12-05T05:48:27;24.77;;;16.70;;
45792;SDS011;31495;42.740;22.908;2022-12-05T05:49:27;26.00;;;16.45;;
45792;SDS011;31495;42.740;22.908;2022-12-05T05:50:27;24.80;;;15.20;;
45792;SDS011;31495;42.740;22.908;2022-12-05T05:51:26;21.30;;;13.43;;
45792;SDS011;31495;42.740;22.908;2022-12-05T05:52:27;23.00;;;14.25;;
45792;SDS011;31495;42.740;22.908;2022-12-05T05:53:26;21.33;;;14.50;;
45792;SDS011;31495;42.740;22.908;2022-12-05T05:54:26;26.83;;;13.65;;
45792;SDS011;31495;42.740;22.908;2022-12-05T05:55:25;23.17;;;11.95;;
45792;SDS011;31495;42.740;22.908;2022-12-05T05:56:25;21.73;;;12.50;;
45792;SDS011;31495;42.740;22.908;2022-12-05T05:57:25;20.13;;;11.93;;
45792;SDS011;31495;42.740;22.908;2022-12-05T05:58:24;21.85;;;13.10;;
45792;SDS011;31495;42.740;22.908;2022-12-05T05:59:23;23.20;;;12.90;;
45792;SDS011;31495;42.740;22.908;2022-12-05T06:00:23;20.63;;;12.95;;
45792;SDS011;31495;42.740;22.908;2022-12-05T06:01:23;21.25;;;12.43;;
45792;SDS011;31495;42.740;22.908;2022-12-05T06:02:23;25.13;;;14.10;;
45792;SDS011;31495;42.740;22.908;2022-12-05T06:03:22;28.13;;;16.35;;
45792;SDS011;31495;42.740;22.908;2022-12-05T06:04:21;27.15;;;14.75;;
45792;SDS011;31495;42.740;22.908;2022-12-05T06:05:21;21.13;;;12.63;;
45792;SDS011;31495;42.740;22.908;2022-12-05T06:06:21;19.58;;;12.27;;
45792;SDS011;31495;42.740;22.908;2022-12-05T06:07:21;29.17;;;16.30;;
45792;SDS011;31495;42.740;22.908;2022-12-05T06:08:21;27.30;;;16.27;;
45792;SDS011;31495;42.740;22.908;2022-12-05T06:09:20;26.27;;;15.57;;
45792;SDS011;31495;42.740;22.908;2022-12-05T06:10:19;40.42;;;18.63;;
45792;SDS011;31495;42.740;22.908;2022-12-05T06:11:20;36.28;;;21.15;;
45792;SDS011;31495;42.740;22.908;2022-12-05T06:12:21;23.27;;;12.98;;
45792;SDS011;31495;42.740;22.908;2022-12-05T06:13:21;20.85;;;11.20;;
45792;SDS011;31495;42.740;22.908;2022-12-05T06:14:20;20.98;;;11.02;;
45792;SDS011;31495;42.740;22.908;2022-12-05T06:15:20;22.45;;;11.93;;
45792;SDS011;31495;42.740;22.908;2022-12-05T06:16:20;29.10;;;16.85;;
45792;SDS011;31495;42.740;22.908;2022-12-05T06:17:20;22.00;;;15.05;;
45792;SDS011;31495;42.740;22.908;2022-12-05T06:18:19;25.58;;;15.15;;
45792;SDS011;31495;42.740;22.908;2022-12-05T06:19:19;15.50;;;11.65;;
45792;SDS011;31495;42.740;22.908;2022-12-05T06:20:18;17.38;;;10.50;;
45792;SDS011;31495;42.740;22.908;2022-12-05T06:21:18;13.75;;;8.90;;
45792;SDS011;31495;42.740;22.908;2022-12-05T06:22:18;13.27;;;7.03;;
45792;SDS011;31495;42.740;22.908;2022-12-05T06:23:17;12.57;;;6.60;;
45792;SDS011;31495;42.740;22.908;2022-12-05T06:24:17;12.57;;;7.80;;
45792;SDS011;31495;42.740;22.908;2022-12-05T06:25:16;12.35;;;7.07;;
45792;SDS011;31495;42.740;22.908;2022-12-05T06:26:18;12.60;;;6.85;;
45792;SDS011;31495;42.740;22.908;2022-12-05T06:27:18;20.02;;;10.52;;
45792;SDS011;31495;42.740;22.908;2022-12-05T06:28:18;21.02;;;10.15;;
45792;SDS011;31495;42.740;22.908;2022-12-05T06:29:19;20.10;;;10.55;;
45792;SDS011;31495;42.740;22.908;2022-12-05T06:30:19;19.67;;;10.52;;
45792;SDS011;31495;42.740;22.908;2022-12-05T06:31:19;21.52;;;9.82;;
45792;SDS011;31495;42.740;22.908;2022-12-05T06:32:20;18.83;;;9.38;;
45792;SDS011;31495;42.740;22.908;2022-12-05T06:33:20;14.80;;;8.00;;
45792;SDS011;31495;42.740;22.908;2022-12-05T06:34:19;17.05;;;8.85;;
45792;SDS011;31495;42.740;22.908;2022-12-05T06:35:19;14.95;;;9.32;;
45792;SDS011;31495;42.740;22.908;2022-12-05T06:36:19;14.35;;;8.63;;
45792;SDS011;31495;42.740;22.908;2022-12-05T06:37:20;14.80;;;8.85;;
45792;SDS011;31495;42.740;22.908;2022-12-05T06:38:20;19.00;;;9.25;;
45792;SDS011;31495;42.740;22.908;2022-12-05T06:39:19;17.83;;;10.13;;
45792;SDS011;31495;42.740;22.908;2022-12-05T06:40:18;18.52;;;8.30;;
45792;SDS011;31495;42.740;22.908;2022-12-05T06:41:19;18.05;;;8.27;;
45792;SDS011;31495;42.740;22.908;2022-12-05T06:42:19;12.40;;;7.07;;
45792;SDS011;31495;42.740;22.908;2022-12-05T06:43:20;13.23;;;7.72;;
45792;SDS011;31495;42.740;22.908;2022-12-05T06:44:19;16.92;;;9.50;;
45792;SDS011;31495;42.740;22.908;2022-12-05T06:45:20;25.38;;;14.55;;
45792;SDS011;31495;42.740;22.908;2022-12-05T06:46:20;19.42;;;9.63;;
45792;SDS011;31495;42.740;22.908;2022-12-05T06:47:20;15.60;;;8.77;;
45792;SDS011;31495;42.740;22.908;2022-12-05T06:48:20;17.70;;;8.75;;
45792;SDS011;31495;42.740;22.908;2022-12-05T06:49:19;15.98;;;8.18;;
45792;SDS011;31495;42.740;22.908;2022-12-05T06:50:20;17.00;;;9.45;;
45792;SDS011;31495;42.740;22.908;2022-12-05T06:51:20;19.88;;;9.18;;
45792;SDS011;31495;42.740;22.908;2022-12-05T06:52:19;21.63;;;11.23;;
45792;SDS011;31495;42.740;22.908;2022-12-05T06:53:19;19.70;;;10.80;;
45792;SDS011;31495;42.740;22.908;2022-12-05T06:54:19;21.92;;;11.02;;
45792;SDS011;31495;42.740;22.908;2022-12-05T06:55:18;30.55;;;12.93;;
45792;SDS011;31495;42.740;22.908;2022-12-05T06:56:18;20.92;;;10.68;;
45792;SDS011;31495;42.740;22.908;2022-12-05T06:57:18;23.63;;;11.85;;
45792;SDS011;31495;42.740;22.908;2022-12-05T06:58:17;20.52;;;11.55;;